Time;durP1;ratioP1;P1;durP2;ratioP2;P2;SDS_P1;SDS_P2;PMS_P1;PMS_P2;Temp;Humidity;BMP_temperature;BMP_pressure;BME280_temperature;BME280_humidity;BME280_pressure;Samples;Min_cycle;Max_cycle;Signal;HPM_P1;HPM_P2
2022/06/03 00:00:36;;;;;;;;;;;12.80;99.90;;;;;;5054167;28;19913;-74
2022/06/03 00:03:04;;;;;;;;;;;12.70;99.90;;;;;;5054659;28;19920;-74
2022/06/03 00:05:56;;;;;;;;;;;12.70;99.90;;;;;;5049309;28;19952;-74
2022/06/03 00:08:34;;;;;;;;;;;12.60;99.90;;;;;;5015221;28;19948;-74
2022/06/03 00:11:18;;;;;;;;;;;12.50;99.90;;;;;;5050994;28;20016;-74
2022/06/03 00:13:43;;;;;;;;;;;12.50;99.90;;;;;;5049137;28;20004;-74
2022/06/03 00:16:17;;;;;;;;;;;12.50;99.90;;;;;;5051120;28;20256;-74
2022/06/03 00:19:03;;;;;;;;;;;12.40;99.90;;;;;;5060152;28;20386;-73
2022/06/03 00:21:48;;;;;;;;;;;12.30;99.90;;;;;;5071662;28;19913;-74
2022/06/03 00:24:16;;;;;;;;;;;12.30;99.90;;;;;;5045459;28;19943;-75
2022/06/03 00:26:45;;;;;;;;;;;12.20;99.90;;;;;;5056666;28;19939;-74
2022/06/03 00:29:11;;;;;;;;;;;12.20;99.90;;;;;;5052553;28;20284;-74
2022/06/03 00:31:46;;;;;;;;;;;12.20;99.90;;;;;;5051000;28;20003;-75
2022/06/03 00:34:30;;;;;;;;;;;12.10;99.90;;;;;;5051978;28;20062;-75
2022/06/03 00:36:56;;;;;;;;;;;12.00;99.90;;;;;;5052441;28;20326;-75
2022/06/03 00:39:24;;;;;;;;;;;12.00;99.90;;;;;;5050775;28;19920;-74
2022/06/03 00:42:21;;;;;;;;;;;11.90;99.90;;;;;;5053684;28;19994;-74
2022/06/03 00:44:59;;;;;;;;;;;11.90;99.90;;;;;;5049623;28;19936;-75
2022/06/03 00:47:31;;;;;;;;;;;11.80;99.90;;;;;;5053330;28;19912;-75
2022/06/03 00:50:17;;;;;;;;;;;11.90;99.90;;;;;;5060854;28;19921;-74
2022/06/03 00:53:02;;;;;;;;;;;11.90;99.90;;;;;;5051177;28;19920;-74
2022/06/03 00:55:30;;;;;;;;;;;11.80;99.90;;;;;;5060388;28;19927;-74
2022/06/03 00:58:14;;;;;;;;;;;11.90;99.90;;;;;;5054516;28;20292;-74
2022/06/03 01:00:59;;;;;;;;;;;11.90;99.90;;;;;;5051678;28;19921;-74
2022/06/03 01:03:28;;;;;;;;;;;11.90;99.90;;;;;;5027790;28;20008;-74
2022/06/03 01:06:09;;;;;;;;;;;11.90;99.90;;;;;;5063550;28;19925;-75
2022/06/03 01:08:35;;;;;;;;;;;11.90;99.90;;;;;;5051151;28;19928;-74
2022/06/03 01:11:10;;;;;;;;;;;11.90;99.90;;;;;;5050401;28;20031;-74
2022/06/03 01:13:39;;;;;;;;;;;11.80;99.90;;;;;;5057997;28;19913;-75
2022/06/03 01:16:13;;;;;;;;;;;11.80;99.90;;;;;;5058372;28;20219;-74
2022/06/03 01:18:49;;;;;;;;;;;11.70;99.90;;;;;;5052599;28;19913;-74
2022/06/03 01:21:38;;;;;;;;;;;11.70;99.90;;;;;;5051591;28;19920;-74
2022/06/03 01:24:22;;;;;;;;;;;11.60;99.90;;;;;;5044966;28;19975;-74
2022/06/03 01:27:06;;;;;;;;;;;11.60;99.90;;;;;;5053647;28;20205;-74
2022/06/03 01:29:50;;;;;;;;;;;11.60;99.90;;;;;;5053003;28;20366;-74
2022/06/03 01:32:19;;;;;;;;;;;11.50;99.90;;;;;;5051662;28;19924;-74
2022/06/03 01:35:03;;;;;;;;;;;11.50;99.90;;;;;;5049851;28;20008;-74
2022/06/03 01:37:28;;;;;;;;;;;11.50;99.90;;;;;;5018345;28;19916;-74
2022/06/03 01:40:07;;;;;;;;;;;11.50;99.90;;;;;;5051605;28;19919;-74
2022/06/03 01:42:33;;;;;;;;;;;11.50;99.90;;;;;;5050227;28;19970;-75
2022/06/03 01:45:02;;;;;;;;;;;11.40;99.90;;;;;;5051097;28;20337;-74
2022/06/03 01:47:43;;;;;;;;;;;11.40;99.90;;;;;;5046605;28;19920;-74
2022/06/03 01:50:27;;;;;;;;;;;11.50;99.90;;;;;;5042787;28;20219;-75
2022/06/03 01:53:11;;;;;;;;;;;11.50;99.90;;;;;;5052577;28;19921;-74
2022/06/03 01:55:52;;;;;;;;;;;11.50;99.90;;;;;;5048019;28;19936;-74
2022/06/03 01:58:33;;;;;;;;;;;11.50;99.90;;;;;;5063346;28;19974;-74
2022/06/03 02:01:31;;;;;;;;;;;11.50;99.90;;;;;;5066100;28;20312;-74
2022/06/03 02:03:57;;;;;;;;;;;11.50;99.90;;;;;;5008523;28;19922;-74
2022/06/03 02:06:42;;;;;;;;;;;11.50;99.90;;;;;;4993539;28;20617;-75
2022/06/03 02:09:14;;;;;;;;;;;11.60;99.90;;;;;;4994983;28;19913;-75
2022/06/03 02:11:40;;;;;;;;;;;11.60;99.90;;;;;;5007703;28;20332;-75
2022/06/03 02:14:24;;;;;;;;;;;11.60;99.90;;;;;;5005169;28;19914;-74
2022/06/03 02:17:08;;;;;;;;;;;11.70;99.90;;;;;;5007066;28;19921;-74
2022/06/03 02:19:40;;;;;;;;;;;11.70;99.90;;;;;;5010599;28;19922;-74
2022/06/03 02:22:14;;;;;;;;;;;11.70;99.90;;;;;;5008797;28;20271;-75
2022/06/03 02:24:40;;;;;;;;;;;11.80;99.90;;;;;;5007972;28;20008;-74
2022/06/03 02:27:20;;;;;;;;;;;11.80;99.90;;;;;;5006263;28;20012;-74
2022/06/03 02:32:48;;;;;;;;;;;11.80;99.90;;;;;;5010584;28;20332;-74
2022/06/03 02:35:20;;;;;;;;;;;11.80;99.90;;;;;;5005167;28;19921;-74
2022/06/03 02:37:49;;;;;;;;;;;11.80;99.90;;;;;;5007585;28;19921;-74
2022/06/03 02:40:35;;;;;;;;;;;11.80;99.90;;;;;;5033731;28;20765;-74
2022/06/03 02:43:18;;;;;;;;;;;11.80;99.90;;;;;;5011592;28;19913;-75
2022/06/03 02:45:43;;;;;;;;;;;11.80;99.90;;;;;;5044631;28;19921;-76
2022/06/03 02:48:15;;;;;;;;;;;11.80;99.90;;;;;;5049678;28;19919;-75
2022/06/03 02:51:10;;;;;;;;;;;11.80;99.90;;;;;;5044888;28;19913;-76
2022/06/03 02:53:53;;;;;;;;;;;11.80;99.90;;;;;;5036648;28;19916;-75
2022/06/03 02:56:41;;;;;;;;;;;11.80;99.90;;;;;;5047298;28;19925;-74
2022/06/03 02:59:25;;;;;;;;;;;11.80;99.90;;;;;;5049070;28;19913;-75
2022/06/03 03:02:09;;;;;;;;;;;11.80;99.90;;;;;;5042364;28;19913;-75
2022/06/03 03:04:52;;;;;;;;;;;11.70;99.90;;;;;;5048050;28;19913;-75
2022/06/03 03:07:43;;;;;;;;;;;11.70;99.90;;;;;;5043822;28;19975;-75
2022/06/03 03:10:27;;;;;;;;;;;11.70;99.90;;;;;;5041693;28;19923;-75
2022/06/03 03:13:08;;;;;;;;;;;11.70;99.90;;;;;;5051254;28;20623;-74
2022/06/03 03:15:53;;;;;;;;;;;11.70;99.90;;;;;;5049061;28;19920;-75
2022/06/03 03:18:33;;;;;;;;;;;11.70;99.90;;;;;;5039744;28;19970;-76
2022/06/03 03:21:18;;;;;;;;;;;11.70;99.90;;;;;;5042588;28;19921;-75
2022/06/03 03:23:44;;;;;;;;;;;11.70;99.90;;;;;;5044646;28;19928;-76
2022/06/03 03:26:22;;;;;;;;;;;11.70;99.90;;;;;;5050404;28;19999;-75
2022/06/03 03:29:04;;;;;;;;;;;11.80;99.90;;;;;;5042661;28;19920;-75
2022/06/03 03:31:35;;;;;;;;;;;11.80;99.90;;;;;;5057780;28;19924;-75
2022/06/03 03:34:22;;;;;;;;;;;11.80;99.90;;;;;;5043410;28;20316;-74
2022/06/03 03:37:17;;;;;;;;;;;11.80;99.90;;;;;;5026590;28;20051;-75
2022/06/03 03:39:58;;;;;;;;;;;11.90;99.90;;;;;;5029130;28;19927;-74
2022/06/03 03:42:36;;;;;;;;;;;11.90;99.90;;;;;;5060294;28;19920;-74
2022/06/03 03:45:19;;;;;;;;;;;11.90;99.90;;;;;;5041960;28;19912;-74
2022/06/03 03:48:03;;;;;;;;;;;11.90;99.90;;;;;;5042158;28;20003;-74
2022/06/03 03:50:28;;;;;;;;;;;11.90;99.90;;;;;;5047245;28;19913;-74
2022/06/03 03:53:33;;;;;;;;;;;12.00;99.90;;;;;;5047396;28;19912;-75
2022/06/03 03:56:11;;;;;;;;;;;12.00;99.90;;;;;;4994937;28;19960;-74
2022/06/03 03:58:48;;;;;;;;;;;12.00;99.90;;;;;;5001850;28;19922;-76
2022/06/03 04:01:32;;;;;;;;;;;12.10;99.90;;;;;;4999808;28;19917;-75
2022/06/03 04:04:18;;;;;;;;;;;12.10;99.90;;;;;;4996652;28;19913;-74
2022/06/03 04:07:02;;;;;;;;;;;12.10;99.90;;;;;;4993581;28;19921;-75
2022/06/03 04:09:28;;;;;;;;;;;12.10;99.90;;;;;;4996508;28;19914;-75
2022/06/03 04:11:54;;;;;;;;;;;12.10;99.90;;;;;;4999656;28;19977;-75
2022/06/03 04:14:31;;;;;;;;;;;12.10;99.90;;;;;;4998867;28;19917;-75
2022/06/03 04:17:15;;;;;;;;;;;12.20;99.90;;;;;;4995540;28;19941;-76
2022/06/03 04:19:42;;;;;;;;;;;12.20;99.90;;;;;;4996332;28;20356;-76
2022/06/03 04:22:08;;;;;;;;;;;12.10;99.90;;;;;;5000836;28;19971;-75
2022/06/03 04:24:36;;;;;;;;;;;12.10;99.90;;;;;;4999264;28;19960;-75
2022/06/03 04:27:38;;;;;;;;;;;12.10;99.90;;;;;;5031916;28;19917;-75
2022/06/03 04:30:22;;;;;;;;;;;12.10;99.90;;;;;;4992831;28;19952;-75
2022/06/03 04:33:00;;;;;;;;;;;12.00;99.90;;;;;;5048406;28;20122;-75
2022/06/03 04:35:40;;;;;;;;;;;12.00;99.90;;;;;;5052065;28;20363;-75
2022/06/03 04:38:25;;;;;;;;;;;12.00;99.90;;;;;;5055018;28;19916;-74
2022/06/03 04:40:53;;;;;;;;;;;12.00;99.90;;;;;;5024930;28;20631;-75
2022/06/03 04:43:37;;;;;;;;;;;12.00;99.90;;;;;;5036266;28;19956;-75
2022/06/03 04:46:21;;;;;;;;;;;12.10;99.90;;;;;;5045564;28;20550;-75
2022/06/03 04:48:56;;;;;;;;;;;12.20;99.90;;;;;;5053193;28;19912;-75
2022/06/03 04:51:33;;;;;;;;;;;12.20;99.90;;;;;;5050343;28;19955;-74
2022/06/03 04:53:58;;;;;;;;;;;12.30;99.90;;;;;;5052868;28;20007;-75
2022/06/03 04:56:46;;;;;;;;;;;12.20;99.90;;;;;;5062822;28;20005;-75
2022/06/03 04:59:31;;;;;;;;;;;12.30;99.90;;;;;;5052928;28;19920;-75
2022/06/03 05:02:00;;;;;;;;;;;12.40;99.90;;;;;;5058806;28;19916;-75
2022/06/03 05:04:40;;;;;;;;;;;12.40;99.90;;;;;;5053197;28;19923;-75
2022/06/03 05:07:24;;;;;;;;;;;12.60;99.90;;;;;;5055514;28;20307;-74
2022/06/03 05:10:16;;;;;;;;;;;12.60;99.90;;;;;;5053847;28;19913;-74
2022/06/03 05:12:48;;;;;;;;;;;12.70;99.90;;;;;;5051071;28;19917;-75
2022/06/03 05:15:32;;;;;;;;;;;12.70;99.90;;;;;;5054615;28;20303;-75
2022/06/03 05:18:10;;;;;;;;;;;12.80;99.90;;;;;;5049863;28;19919;-75
2022/06/03 05:20:35;;;;;;;;;;;12.90;99.90;;;;;;5051052;28;19920;-75
2022/06/03 05:23:16;;;;;;;;;;;13.00;99.90;;;;;;5052002;28;20238;-75
2022/06/03 05:25:44;;;;;;;;;;;13.00;99.90;;;;;;5054804;28;19921;-75
2022/06/03 05:28:19;;;;;;;;;;;13.10;99.90;;;;;;5053914;28;19912;-75
2022/06/03 05:30:44;;;;;;;;;;;13.10;99.90;;;;;;5052554;28;19999;-74
2022/06/03 05:33:26;;;;;;;;;;;13.20;99.90;;;;;;5051383;28;20011;-75
2022/06/03 05:35:57;;;;;;;;;;;13.20;99.90;;;;;;5055269;28;20258;-75
2022/06/03 05:38:23;;;;;;;;;;;13.20;99.90;;;;;;5055319;28;20338;-76
2022/06/03 05:41:07;;;;;;;;;;;13.20;99.90;;;;;;5051637;28;19917;-75
2022/06/03 05:43:35;;;;;;;;;;;13.20;99.90;;;;;;5051994;28;19929;-75
2022/06/03 05:46:10;;;;;;;;;;;13.30;99.90;;;;;;5012374;28;19921;-75
2022/06/03 05:48:48;;;;;;;;;;;13.40;99.90;;;;;;4946389;28;24352;-74
2022/06/03 05:51:34;;;;;;;;;;;13.40;99.90;;;;;;4957123;28;19933;-75
2022/06/03 05:54:09;;;;;;;;;;;13.50;99.90;;;;;;4943033;28;20502;-74
2022/06/03 05:56:41;;;;;;;;;;;13.60;99.90;;;;;;4939786;28;19932;-74
2022/06/03 05:59:21;;;;;;;;;;;13.60;99.90;;;;;;4940421;28;19923;-74
2022/06/03 06:02:07;;;;;;;;;;;13.70;99.90;;;;;;4939392;28;19923;-75
2022/06/03 06:04:53;;;;;;;;;;;13.70;99.90;;;;;;4941493;28;20358;-73
2022/06/03 06:07:42;;;;;;;;;;;13.70;99.90;;;;;;4908464;28;19916;-74
2022/06/03 06:10:26;;;;;;;;;;;13.60;99.90;;;;;;4939574;28;20036;-76
2022/06/03 06:12:55;;;;;;;;;;;13.60;99.90;;;;;;4934129;28;19924;-76
2022/06/03 06:15:21;;;;;;;;;;;13.60;99.90;;;;;;4935559;28;19917;-75
2022/06/03 06:17:49;;;;;;;;;;;13.70;99.90;;;;;;4936464;28;20801;-75
2022/06/03 06:20:15;;;;;;;;;;;13.70;99.90;;;;;;4936256;28;19917;-74
2022/06/03 06:22:45;;;;;;;;;;;13.80;99.90;;;;;;4942033;28;20162;-75
2022/06/03 06:25:20;;;;;;;;;;;13.80;99.90;;;;;;4942871;28;20539;-75
2022/06/03 06:27:57;;;;;;;;;;;13.90;99.90;;;;;;4941151;28;19960;-75
2022/06/03 06:30:25;;;;;;;;;;;14.00;99.90;;;;;;4941649;28;19917;-74
2022/06/03 06:32:51;;;;;;;;;;;14.00;99.90;;;;;;4942355;28;20247;-74
2022/06/03 06:35:36;;;;;;;;;;;14.10;99.90;;;;;;4941404;28;20011;-74
2022/06/03 06:38:01;;;;;;;;;;;14.10;99.90;;;;;;4942058;28;19921;-74
2022/06/03 06:40:27;;;;;;;;;;;14.20;99.90;;;;;;4957659;28;19990;-75
2022/06/03 06:43:10;;;;;;;;;;;14.20;99.90;;;;;;4943066;28;19924;-74
2022/06/03 06:45:36;;;;;;;;;;;14.20;99.90;;;;;;4936867;28;19917;-75
2022/06/03 06:48:15;;;;;;;;;;;14.40;99.90;;;;;;4929089;28;19916;-74
2022/06/03 06:50:52;;;;;;;;;;;14.40;99.90;;;;;;4926384;28;20798;-75
2022/06/03 06:53:21;;;;;;;;;;;14.40;99.90;;;;;;4923540;28;19928;-75
2022/06/03 06:55:52;;;;;;;;;;;14.50;99.90;;;;;;4942323;28;19920;-75
2022/06/03 06:58:26;;;;;;;;;;;14.40;99.90;;;;;;4932657;28;19952;-74
2022/06/03 07:00:53;;;;;;;;;;;14.50;99.90;;;;;;4931594;28;19917;-74
2022/06/03 07:03:28;;;;;;;;;;;14.70;99.90;;;;;;4952524;28;20779;-75
2022/06/03 07:05:57;;;;;;;;;;;14.80;99.90;;;;;;4951204;28;24077;-75
2022/06/03 07:08:25;;;;;;;;;;;14.80;99.90;;;;;;4947562;28;20008;-74
2022/06/03 07:11:05;;;;;;;;;;;14.90;99.90;;;;;;4930848;28;19923;-75
2022/06/03 07:13:42;;;;;;;;;;;14.90;99.90;;;;;;4931426;28;19936;-73
2022/06/03 07:22:11;;;;;;;;;;;15.00;99.90;;;;;;4929332;28;20966;-75
2022/06/03 07:24:42;;;;;;;;;;;15.10;99.90;;;;;;4927903;28;19916;-74
2022/06/03 07:27:12;;;;;;;;;;;15.30;99.90;;;;;;4927837;28;19917;-75
2022/06/03 07:29:39;;;;;;;;;;;15.30;99.90;;;;;;4931829;28;19917;-75
2022/06/03 07:32:17;;;;;;;;;;;15.30;99.90;;;;;;4927936;28;20632;-73
2022/06/03 07:34:57;;;;;;;;;;;15.50;99.90;;;;;;4926112;28;19924;-74
2022/06/03 07:37:31;;;;;;;;;;;15.40;99.90;;;;;;4933304;28;19991;-74
2022/06/03 07:39:59;;;;;;;;;;;15.50;99.90;;;;;;4928666;28;19917;-75
2022/06/03 07:42:31;;;;;;;;;;;15.50;99.90;;;;;;4940388;28;21482;-75
2022/06/03 07:45:12;;;;;;;;;;;15.60;99.90;;;;;;4924543;28;24121;-75
2022/06/03 07:47:38;;;;;;;;;;;15.70;99.90;;;;;;4924956;28;21422;-75
2022/06/03 07:50:06;;;;;;;;;;;15.80;99.90;;;;;;4925125;28;20555;-76
2022/06/03 07:52:41;;;;;;;;;;;16.00;99.90;;;;;;4923336;28;19947;-75
2022/06/03 07:55:11;;;;;;;;;;;16.30;99.90;;;;;;4919109;28;19944;-75
2022/06/03 07:57:37;;;;;;;;;;;16.60;99.90;;;;;;4924743;28;21506;-75
2022/06/03 08:00:05;;;;;;;;;;;16.90;99.90;;;;;;4924153;28;19924;-74
2022/06/03 08:02:30;;;;;;;;;;;17.20;99.90;;;;;;4927754;28;19959;-75
2022/06/03 08:05:05;;;;;;;;;;;17.30;99.90;;;;;;4924503;28;19916;-74
2022/06/03 08:13:05;;;;;;;;;;;17.90;99.90;;;;;;4929888;28;19974;-74
2022/06/03 08:15:34;;;;;;;;;;;18.20;99.90;;;;;;4927602;28;23338;-74
2022/06/03 08:18:00;;;;;;;;;;;18.60;99.90;;;;;;4928300;28;19917;-75
2022/06/03 08:20:27;;;;;;;;;;;18.70;99.90;;;;;;4926041;28;20278;-76
2022/06/03 08:22:53;;;;;;;;;;;18.80;99.90;;;;;;4924463;28;19917;-77
2022/06/03 08:25:25;;;;;;;;;;;18.80;99.90;;;;;;4922919;28;19917;-74
2022/06/03 08:27:52;;;;;;;;;;;19.00;99.90;;;;;;4938042;28;20003;-74
2022/06/03 08:30:19;;;;;;;;;;;19.30;99.90;;;;;;4925286;28;19918;-74
2022/06/03 08:33:18;;;;;;;;;;;19.50;99.90;;;;;;4921986;28;19928;-74
2022/06/03 08:35:46;;;;;;;;;;;19.70;99.90;;;;;;4868389;28;20351;-74
2022/06/03 08:38:14;;;;;;;;;;;20.00;99.90;;;;;;4883080;28;19922;-75
2022/06/03 08:40:54;;;;;;;;;;;20.00;99.90;;;;;;4886607;28;19917;-75
2022/06/03 08:43:29;;;;;;;;;;;20.20;99.90;;;;;;4885904;28;19917;-76
2022/06/03 08:46:12;;;;;;;;;;;20.50;99.90;;;;;;4888306;28;21421;-75
2022/06/03 08:48:39;;;;;;;;;;;20.70;99.90;;;;;;4891023;28;19999;-74
2022/06/03 08:51:10;;;;;;;;;;;20.60;99.90;;;;;;4888114;28;20900;-75
2022/06/03 08:53:46;;;;;;;;;;;20.50;99.90;;;;;;4887991;28;19924;-75
2022/06/03 08:56:20;;;;;;;;;;;20.60;99.90;;;;;;4872606;28;19977;-74
2022/06/03 08:58:58;;;;;;;;;;;20.70;99.90;;;;;;4887478;28;19918;-76
2022/06/03 09:01:36;;;;;;;;;;;21.00;99.90;;;;;;4888986;28;21406;-75
2022/06/03 09:04:17;;;;;;;;;;;21.10;99.90;;;;;;4884784;28;19928;-75
2022/06/03 09:06:45;;;;;;;;;;;21.30;99.90;;;;;;4885035;28;19918;-75
2022/06/03 09:09:11;;;;;;;;;;;21.40;99.90;;;;;;4887545;28;20861;-74
2022/06/03 09:11:42;;;;;;;;;;;21.30;99.90;;;;;;4913153;28;19924;-75
2022/06/03 09:14:16;;;;;;;;;;;21.40;99.90;;;;;;4935705;28;19924;-75
2022/06/03 09:16:42;;;;;;;;;;;21.50;99.90;;;;;;5035070;28;19917;-76
2022/06/03 09:19:17;;;;;;;;;;;21.60;99.90;;;;;;5051316;28;19917;-75
2022/06/03 09:21:45;;;;;;;;;;;21.60;99.90;;;;;;5054067;28;19913;-76
2022/06/03 09:24:20;;;;;;;;;;;21.80;99.90;;;;;;5053600;28;20463;-74
2022/06/03 09:26:47;;;;;;;;;;;22.30;99.90;;;;;;5053303;28;19916;-75
2022/06/03 09:29:14;;;;;;;;;;;22.70;99.90;;;;;;5051400;28;19924;-75
2022/06/03 09:31:43;;;;;;;;;;;23.00;99.00;;;;;;5021598;28;19924;-76
2022/06/03 09:34:11;;;;;;;;;;;22.70;98.90;;;;;;4925896;28;23767;-75
2022/06/03 09:36:36;;;;;;;;;;;22.70;98.90;;;;;;4924973;28;19962;-76
2022/06/03 09:39:12;;;;;;;;;;;22.70;99.10;;;;;;4928574;28;20016;-75
2022/06/03 09:41:40;;;;;;;;;;;22.70;99.00;;;;;;4926781;28;20024;-75
2022/06/03 09:44:07;;;;;;;;;;;22.70;99.20;;;;;;4927680;28;19952;-75
2022/06/03 09:46:33;;;;;;;;;;;22.60;99.10;;;;;;4926201;28;19917;-76
2022/06/03 09:49:00;;;;;;;;;;;22.80;99.30;;;;;;4928964;28;19917;-75
2022/06/03 09:54:19;;;;;;;;;;;23.00;99.50;;;;;;4926648;28;19927;-75
2022/06/03 09:56:50;;;;;;;;;;;23.40;99.60;;;;;;4929991;28;19994;-74
2022/06/03 09:59:16;;;;;;;;;;;23.50;98.20;;;;;;4944363;28;19928;-74
2022/06/03 10:01:42;;;;;;;;;;;23.60;98.70;;;;;;4925402;28;19917;-75
2022/06/03 10:04:08;;;;;;;;;;;23.60;98.60;;;;;;4925590;28;20099;-74
2022/06/03 10:06:43;;;;;;;;;;;23.90;97.80;;;;;;4922287;28;19917;-74
2022/06/03 10:14:37;;;;;;;;;;;23.90;97.30;;;;;;4926084;28;20423;-75
2022/06/03 10:17:04;;;;;;;;;;;24.10;98.10;;;;;;4928793;28;19917;-75
2022/06/03 10:19:30;;;;;;;;;;;24.40;97.70;;;;;;4931023;28;20696;-76
2022/06/03 10:21:55;;;;;;;;;;;24.10;96.70;;;;;;4931086;28;19917;-75
2022/06/03 10:24:28;;;;;;;;;;;24.00;97.60;;;;;;4928315;28;20405;-75
2022/06/03 10:26:57;;;;;;;;;;;23.90;95.80;;;;;;4931883;28;19918;-75
2022/06/03 10:29:25;;;;;;;;;;;23.90;97.60;;;;;;4928911;28;19991;-74
2022/06/03 10:32:01;;;;;;;;;;;24.00;96.30;;;;;;4933303;28;19940;-75
2022/06/03 10:34:31;;;;;;;;;;;24.10;95.80;;;;;;4926557;28;23552;-75
2022/06/03 10:36:56;;;;;;;;;;;24.10;95.80;;;;;;4930832;28;19928;-75
2022/06/03 10:39:27;;;;;;;;;;;24.30;97.00;;;;;;4932027;28;19979;-74
2022/06/03 10:41:53;;;;;;;;;;;24.20;95.70;;;;;;4931679;28;19924;-75
2022/06/03 10:44:23;;;;;;;;;;;24.20;96.20;;;;;;4931870;28;20618;-75
2022/06/03 10:47:24;;;;;;;;;;;24.00;95.80;;;;;;4933132;28;19917;-75
2022/06/03 10:49:51;;;;;;;;;;;24.10;96.80;;;;;;4856032;28;19918;-77
2022/06/03 11:03:30;;;;;;;;;;;24.80;94.30;;;;;;4869484;28;19925;-75
2022/06/03 11:05:56;;;;;;;;;;;24.60;94.50;;;;;;4838445;28;19922;-75
2022/06/03 11:08:22;;;;;;;;;;;24.70;94.60;;;;;;4867856;28;19918;-75
2022/06/03 11:10:49;;;;;;;;;;;24.70;94.00;;;;;;4866385;28;19937;-76
2022/06/03 11:13:39;;;;;;;;;;;24.80;94.50;;;;;;4864603;28;19958;-75
2022/06/03 11:16:15;;;;;;;;;;;24.80;94.10;;;;;;4852595;28;19937;-76
2022/06/03 11:18:41;;;;;;;;;;;24.60;94.90;;;;;;4868472;28;19922;-75
2022/06/03 11:21:19;;;;;;;;;;;24.70;94.10;;;;;;4870005;28;21252;-75
2022/06/03 11:23:44;;;;;;;;;;;24.90;93.90;;;;;;4888591;28;20387;-75
2022/06/03 11:26:10;;;;;;;;;;;24.80;93.40;;;;;;4928612;28;19924;-75
2022/06/03 11:28:38;;;;;;;;;;;24.70;94.60;;;;;;4926889;28;21458;-76
2022/06/03 11:31:06;;;;;;;;;;;24.80;94.30;;;;;;4929774;28;19999;-77
2022/06/03 11:33:38;;;;;;;;;;;24.70;94.20;;;;;;4943998;28;19917;-77
2022/06/03 11:36:15;;;;;;;;;;;24.90;93.60;;;;;;4925807;28;21609;-75
2022/06/03 11:38:49;;;;;;;;;;;24.80;93.20;;;;;;4930605;28;19923;-75
2022/06/03 11:41:19;;;;;;;;;;;24.90;93.40;;;;;;4931582;28;19921;-76
2022/06/03 11:43:49;;;;;;;;;;;24.80;93.40;;;;;;4931628;28;19957;-75
2022/06/03 11:46:18;;;;;;;;;;;24.80;93.20;;;;;;4923888;28;21978;-74
2022/06/03 11:48:44;;;;;;;;;;;25.10;94.00;;;;;;4925308;28;19921;-77
2022/06/03 11:51:11;;;;;;;;;;;25.00;91.90;;;;;;4929704;28;20358;-75
2022/06/03 11:53:47;;;;;;;;;;;24.90;93.00;;;;;;4928097;28;19923;-76
2022/06/03 11:56:15;;;;;;;;;;;24.90;92.90;;;;;;4928145;28;20315;-76
2022/06/03 11:58:44;;;;;;;;;;;25.10;92.50;;;;;;4927545;28;20016;-76
2022/06/03 12:01:14;;;;;;;;;;;25.10;91.50;;;;;;4930185;28;19923;-78
2022/06/03 12:03:54;;;;;;;;;;;25.20;92.40;;;;;;4927163;28;20888;-76
2022/06/03 12:06:33;;;;;;;;;;;25.20;92.20;;;;;;4928100;28;20935;-75
2022/06/03 12:09:12;;;;;;;;;;;25.00;90.40;;;;;;4943047;28;19963;-76
2022/06/03 12:14:41;;;;;;;;;;;25.00;91.10;;;;;;4933781;28;19936;-76
2022/06/03 12:17:09;;;;;;;;;;;25.00;90.00;;;;;;4933821;28;20003;-74
2022/06/03 12:19:45;;;;;;;;;;;25.20;90.40;;;;;;4934768;28;20827;-76
2022/06/03 12:22:17;;;;;;;;;;;25.30;90.60;;;;;;4931221;28;20856;-77
2022/06/03 12:24:43;;;;;;;;;;;25.40;91.30;;;;;;4936337;28;19916;-75
2022/06/03 12:27:13;;;;;;;;;;;25.40;91.10;;;;;;4931711;28;19956;-75
2022/06/03 12:29:43;;;;;;;;;;;25.50;91.90;;;;;;4932093;28;19917;-77
2022/06/03 12:32:16;;;;;;;;;;;25.60;90.30;;;;;;4934217;28;19970;-75
2022/06/03 12:34:42;;;;;;;;;;;25.80;91.70;;;;;;4930525;28;20335;-76
2022/06/03 12:37:25;;;;;;;;;;;25.80;90.60;;;;;;4930274;28;19932;-76
2022/06/03 12:40:19;;;;;;;;;;;25.50;90.50;;;;;;4930635;28;20303;-76
2022/06/03 12:42:45;;;;;;;;;;;25.50;90.50;;;;;;4936376;28;20633;-76
2022/06/03 12:45:13;;;;;;;;;;;25.60;88.20;;;;;;4933437;28;19939;-76
2022/06/03 12:47:44;;;;;;;;;;;25.60;90.00;;;;;;4934226;28;22933;-75
2022/06/03 12:50:15;;;;;;;;;;;25.60;87.50;;;;;;4936488;28;20315;-77
2022/06/03 12:52:42;;;;;;;;;;;25.30;90.70;;;;;;4934253;28;23460;-75
2022/06/03 12:55:30;;;;;;;;;;;25.10;88.50;;;;;;4933156;28;19932;-76
2022/06/03 12:57:58;;;;;;;;;;;25.10;91.00;;;;;;4934912;28;20048;-76
2022/06/03 13:00:26;;;;;;;;;;;25.10;90.00;;;;;;4947695;28;19921;-77
2022/06/03 13:03:04;;;;;;;;;;;25.30;90.50;;;;;;4931980;28;20168;-76
2022/06/03 13:05:35;;;;;;;;;;;25.50;90.10;;;;;;4931909;28;19917;-77
2022/06/03 13:08:03;;;;;;;;;;;25.50;90.00;;;;;;4936043;28;20562;-76
2022/06/03 13:10:30;;;;;;;;;;;25.60;89.70;;;;;;4936423;28;19917;-75
2022/06/03 13:13:16;;;;;;;;;;;25.80;90.30;;;;;;4928660;28;19940;-75
2022/06/03 13:15:43;;;;;;;;;;;25.70;90.40;;;;;;4931942;28;20909;-77
2022/06/03 13:20:34;;;;;;;;;;;25.60;89.90;;;;;;4931982;28;19934;-76
2022/06/03 13:23:00;;;;;;;;;;;25.60;88.10;;;;;;4931858;28;21257;-77
2022/06/03 13:25:28;;;;;;;;;;;25.50;87.10;;;;;;4932823;28;19924;-76
2022/06/03 13:28:14;;;;;;;;;;;25.30;89.20;;;;;;4928159;28;19923;-76
2022/06/03 13:30:40;;;;;;;;;;;25.20;89.80;;;;;;4937578;28;20055;-77
2022/06/03 13:33:32;;;;;;;;;;;25.10;91.40;;;;;;4939476;28;19928;-76
2022/06/03 13:36:00;;;;;;;;;;;25.40;90.30;;;;;;4925922;28;19959;-76
2022/06/03 13:38:38;;;;;;;;;;;25.40;88.50;;;;;;4934049;28;19917;-77
2022/06/03 13:44:07;;;;;;;;;;;25.40;89.50;;;;;;4929582;28;20765;-77
2022/06/03 13:46:33;;;;;;;;;;;25.60;88.90;;;;;;4930430;28;20575;-76
2022/06/03 13:49:01;;;;;;;;;;;25.50;88.00;;;;;;4932567;28;20016;-78
2022/06/03 13:51:29;;;;;;;;;;;25.50;88.60;;;;;;4929489;28;22186;-77
2022/06/03 13:53:59;;;;;;;;;;;25.40;91.20;;;;;;4927190;28;19925;-76
2022/06/03 13:56:27;;;;;;;;;;;25.60;90.10;;;;;;4931086;28;20339;-77
2022/06/03 13:58:53;;;;;;;;;;;25.60;92.50;;;;;;4928536;28;20349;-76
2022/06/03 14:01:28;;;;;;;;;;;25.00;91.40;;;;;;4928662;28;19916;-75
2022/06/03 14:04:03;;;;;;;;;;;24.80;92.50;;;;;;4926676;28;20793;-77
2022/06/03 14:06:39;;;;;;;;;;;24.90;92.00;;;;;;4926328;28;19924;-75
2022/06/03 14:09:16;;;;;;;;;;;25.00;91.30;;;;;;4912718;28;19921;-75
2022/06/03 14:11:43;;;;;;;;;;;24.70;92.10;;;;;;4926762;28;20032;-76
2022/06/03 14:14:28;;;;;;;;;;;24.20;91.90;;;;;;4928255;28;19916;-76
2022/06/03 14:17:02;;;;;;;;;;;23.90;93.00;;;;;;4940358;28;20054;-75
2022/06/03 14:19:28;;;;;;;;;;;23.80;94.50;;;;;;4926853;28;20840;-76
2022/06/03 14:21:54;;;;;;;;;;;23.80;94.90;;;;;;4925995;28;20609;-76
2022/06/03 14:24:19;;;;;;;;;;;23.70;93.70;;;;;;4928775;28;19917;-76
2022/06/03 14:26:49;;;;;;;;;;;23.40;95.40;;;;;;4926725;28;19916;-76
2022/06/03 14:29:17;;;;;;;;;;;23.30;94.20;;;;;;4926192;28;20022;-76
2022/06/03 14:31:48;;;;;;;;;;;23.50;95.00;;;;;;4927702;28;19925;-75
2022/06/03 14:34:39;;;;;;;;;;;23.20;94.60;;;;;;4927287;28;20246;-77
2022/06/03 14:37:09;;;;;;;;;;;22.90;95.30;;;;;;4905867;28;19960;-76
2022/06/03 14:39:36;;;;;;;;;;;22.70;95.10;;;;;;4905104;28;19917;-77
2022/06/03 14:42:05;;;;;;;;;;;22.60;94.50;;;;;;4907465;28;19918;-76
2022/06/03 14:44:32;;;;;;;;;;;22.50;95.10;;;;;;4908571;28;19923;-76
2022/06/03 14:46:57;;;;;;;;;;;22.60;95.80;;;;;;4901985;28;19925;-75
2022/06/03 14:49:49;;;;;;;;;;;22.60;95.30;;;;;;4904149;28;20824;-77
2022/06/03 14:52:20;;;;;;;;;;;22.40;96.30;;;;;;4906098;28;20011;-80
2022/06/03 14:54:53;;;;;;;;;;;22.30;96.40;;;;;;4908863;28;19929;-74
2022/06/03 14:57:31;;;;;;;;;;;22.20;95.40;;;;;;4892559;28;20028;-77
2022/06/03 14:59:56;;;;;;;;;;;22.10;95.80;;;;;;4904336;28;20004;-75
2022/06/03 15:02:24;;;;;;;;;;;21.90;95.90;;;;;;4909186;28;20326;-74
2022/06/03 15:04:53;;;;;;;;;;;21.80;96.80;;;;;;4906667;28;19917;-74
2022/06/03 15:07:25;;;;;;;;;;;21.80;96.50;;;;;;4894754;28;20858;-75
2022/06/03 15:09:53;;;;;;;;;;;21.90;96.20;;;;;;4927875;28;19925;-76
2022/06/03 15:12:22;;;;;;;;;;;21.60;96.70;;;;;;4928200;28;19925;-74
2022/06/03 15:14:48;;;;;;;;;;;21.40;97.10;;;;;;4927888;28;19947;-75
2022/06/03 15:17:15;;;;;;;;;;;21.50;96.80;;;;;;4929067;28;20304;-76
2022/06/03 15:19:42;;;;;;;;;;;21.50;96.50;;;;;;4930263;28;19917;-75
2022/06/03 15:22:12;;;;;;;;;;;21.60;96.00;;;;;;4929963;28;19920;-75
2022/06/03 15:24:43;;;;;;;;;;;21.40;95.60;;;;;;4926404;28;19917;-75
2022/06/03 15:27:09;;;;;;;;;;;21.60;96.50;;;;;;4929409;28;19920;-76
2022/06/03 15:29:35;;;;;;;;;;;22.00;96.50;;;;;;4929620;28;19924;-74
2022/06/03 15:32:01;;;;;;;;;;;22.30;97.40;;;;;;4927571;28;19959;-75
2022/06/03 15:34:33;;;;;;;;;;;22.30;95.60;;;;;;4929996;28;21425;-75
2022/06/03 15:36:59;;;;;;;;;;;22.30;96.40;;;;;;4930786;28;20591;-76